Nelson, Minnesota
Current Conditions -  °F | °C
As of 4:53 PM on Saturday 25 Oct 2014 (Local Time) from KAXN Reporting Station
Clear Clear  
Wind Chill: 58°   Ceiling: Unl
Heat Index: 58°   Visibility: 10mi
Dew Point: 23°   Wind: 13mph
Humidity: 26%   Direction: 330°NNW
Pressure: 30.08"   Gusts: NA
Location:  45.89°N, 95.26°W
Report Text: KAXN 252153Z AUTO 33011KT 10SM CLR 14/M05 A3008 RMK AO2 SLP193 T01441050
Loading
Personal Weather Stations






























Interactive Weather Map
Tropical Storm Tracking
New forecast layout! Learn more

10-Day Weather Forecast

Advertisements
Track Severe Weather on mobile